Annette Island, AK

8:55 AM AKDT on July 28, 2014 (GMT -0800)
Metlakatla (PAMM) Elev 0 ft | 55.13 °N, 131.58 °W | Change Station

Current weather conditions updated 19 minutes ago

Overcast
Overcast
61 °F
Feels Like 61 °F
N
0
Wind Variable Wind from North

Today is forecast to be nearly the same temperature as yesterday. Mainly cloudy and rainy.

Today
High -- | Low -- °F
--% Chance of Precip.
Yesterday
High -- | Low -- °F
Precip. -- in
4:48 AM 8:56 PM
Waxing Crescent, 3% visible
Pressure 30.11 in
Visibility 10.0 miles
Clouds Few 2900 ft
Overcast 3500 ft
Dew Point 54 °F
Humidity 77%
Rainfall 0.00 in
Snow Depth Not available.
UV 1 out of 12
Pollen Not available.
Air Quality Not available.
Flu Activity Not available.
METAR PAMM 281636Z AUTO 00000KT 10SM FEW029 OVC035 16/12 A3011 RMK AO1

More Conditions Fewer Conditions

Pressure 30.11 in
Visibility 10.0 miles
Clouds Few 2900 ft
Overcast 3500 ft
Dew Point 54 °F
Humidity 77%
Rainfall 0.00 in
Snow Depth Not available.
UV 1 out of 12
Pollen Not available.
Air Quality Not available.
Flu Activity Not available.
METAR PAMM 281636Z AUTO 00000KT 10SM FEW029 OVC035 16/12 A3011 RMK AO1

More Conditions Fewer Conditions

10-Day Weather Forecast

Almanac

Astronomy

Jul. 28, 2014 Rise Set
Actual Time 4:48 AM AKDT 8:56 PM AKDT
Civil Twilight 4:00 AM AKDT 9:43 PM AKDT
Nautical Twilight 2:48 AM AKDT 10:53 PM AKDT
Astronomical Twilight 1:25 AM AKDT 12:20 AM AKDT
Moon 7:05 AM AKDT 9:07 PM AKDT
Length of Visible Light 17h 43m
Length of Day
16h 07m
Tomorrow will be 3m 32s shorter.
Waxing Crescent, 3% of the Moon is Illuminated
Today
Waxing Crescent
Aug 3
First Quarter
Aug 10
Full
Aug 17
Last Quarter
Aug 25
New

Today's Extremes

State Highs State Lows

Community

WunderPhotos

Upload Photos

1,738,407 photos uploaded!

Nearby

Snow Depth

Station Depth Elevation
Long Lake 0 in 820 ft
Upper Tsaina River 0 in 1750 ft
Moraine 0 in 2100 ft
Grouse Creek Divide 0 in 700 ft
Grandview 5 in 1100 ft

Earthquake Activity

City Distance Mag. Time & Date
No recent earthquake activity has been reported nearby.
Minimum magnitude displayed is 2.5.

Coastal Water Temperatures

Place Temperature
No Stations Reporting

Nearby Weather Stations

Station Location Temp. Dew Point Humidity Wind Precip. Elev Updated Type
CRN NOAA/NWS ANNETTE ISLAND 6 S AK , Metlakatla, AK 60 °F - - North  at  - 0.00 in / hr 104 ft 8:30 AM AKDT MADIS
Bailey Blvd, Ketchikan, AK 58.4 °F 58 °F 97% ENE  at  0.0 mph 0.00 in / hr 240 ft 8:50 AM AKDT Normal
MARITIME , Juneau, AK 56 °F 54 °F 94% North  at  15 mph 0.00 in / hr 0 ft 6:00 AM AKDT MADIS

Show More Stations Show Fewer Stations